Mariner A — 9HVA7 — position and weather

sailwx.info

Track history (hours):
 
Tides and Currents Weather Stations Pressure Air Temp Water Temp Dewpoint Dewpoint Depression Visibility Wind Speed Wind Dir Waves Ship Positions

Mariner A

Last reported at 2017-Apr-22 16:53 UTC. Time now 2017-Apr-23 17:54 UTC.
Position N 31°39' E 034°31'.

Length 176 m; draft 9.5 m.

Type: Ship (hazmat cat A). MMSI: 215817000.

Date/timePositionNaut miles runAvg speedWind from/ knotsBaromVisibWave heightAir tempDewpointWater temp
2017-Apr-22 16:53N 31°39' E 034°31'1 0.1
2017-Apr-22 09:09N 31°40' E 034°30'1 0.1
2017-Apr-21 16:56N 31°41' E 034°29'0 0.0
2017-Apr-21 16:26N 31°41' E 034°29'0 0.0
2017-Apr-21 15:56N 31°41' E 034°29'0 0.0
2017-Apr-21 15:26N 31°41' E 034°29'0 0.0
2017-Apr-21 14:56N 31°41' E 034°29'0 0.0
2017-Apr-21 14:26N 31°41' E 034°29'0 0.0
2017-Apr-21 13:26N 31°41' E 034°29'6 0.9
2017-Apr-21 06:46N 31°46' E 034°28'512.0
2017-Apr-21 06:22N 31°51' E 034°27'411.8
2017-Apr-21 06:00N 31°54' E 034°23'612.3
2017-Apr-21 05:30N 31°57' E 034°17'612.1
2017-Apr-21 05:00N 31°60' E 034°10'612.2
2017-Apr-21 04:30N 32°03' E 034°04'612.2
2017-Apr-21 04:00N 32°05' E 033°57'612.0
2017-Apr-21 03:30N 32°07' E 033°51'611.7
2017-Apr-21 03:00N 32°13' E 033°49'612.0
2017-Apr-21 02:30N 32°19' E 033°48'712.1
2017-Apr-21 01:55N 32°26' E 033°47'511.8
2017-Apr-21 01:30N 32°31' E 033°45'712.2
2017-Apr-21 00:57N 32°37' E 033°44'612.6
2017-Apr-21 00:30N 32°43' E 033°43'612.7
2017-Apr-21 00:00N 32°49' E 033°42'612.5
2017-Apr-20 23:30N 32°55' E 033°40'612.5
2017-Apr-20 23:00N 33°01' E 033°37'612.4
2017-Apr-20 22:30N 33°07' E 033°36'713.2
2017-Apr-20 22:00N 33°14' E 033°37'712.9
2017-Apr-20 21:30N 33°20' E 033°36'613.0
2017-Apr-20 21:00N 33°26' E 033°34'713.1
2017-Apr-20 20:30N 33°33' E 033°33'713.2
2017-Apr-20 20:00N 33°39' E 033°32'713.1
2017-Apr-20 19:30N 33°46' E 033°31'713.2
2017-Apr-20 19:00N 33°52' E 033°30'713.4
2017-Apr-20 18:30N 33°59' E 033°28'713.4
2017-Apr-20 18:00N 34°06' E 033°27'713.4
2017-Apr-20 17:30N 34°12' E 033°26'713.4
2017-Apr-20 17:00N 34°19' E 033°25'713.2
2017-Apr-20 16:30N 34°25' E 033°23'713.1
2017-Apr-20 16:00N 34°32' E 033°22'612.7
2017-Apr-20 15:30N 34°38' E 033°20'4 8.2
2017-Apr-20 14:58N 34°42' E 033°19'0 0.5
2017-Apr-20 14:25N 34°42' E 033°19'1 0.0
2017-Apr-18 17:52N 34°42' E 033°20'0 0.0
2017-Apr-17 19:09N 34°42' E 033°20'0 0.1
2017-Apr-17 18:57N 34°42' E 033°20'0 0.0
2017-Apr-17 15:39N 34°42' E 033°20'0 0.0
2017-Apr-17 15:15N 34°42' E 033°20'0 0.0
2017-Apr-17 14:57N 34°42' E 033°20'0 0.0
2017-Apr-17 12:57N 34°42' E 033°20'0 0.0
2017-Apr-16 22:09N 34°42' E 033°20'0 0.0
2017-Apr-16 21:45N 34°42' E 033°20'0 0.0
2017-Apr-16 20:51N 34°42' E 033°20'0 0.0
2017-Apr-16 20:27N 34°42' E 033°20'0 0.0
2017-Apr-16 19:15N 34°42' E 033°20'0 0.0
2017-Apr-16 17:56N 34°42' E 033°20'0 0.0
2017-Apr-16 16:44N 34°42' E 033°20'0 0.0
2017-Apr-16 16:26N 34°42' E 033°20'0 0.0
2017-Apr-16 01:50N 34°42' E 033°20'0 0.0
2017-Apr-15 20:26N 34°42' E 033°20'0 0.0
2017-Apr-15 19:52N 34°42' E 033°20'0 0.0
2017-Apr-15 19:28N 34°42' E 033°20'0 0.9
2017-Apr-15 19:00N 34°41' E 033°20'611.8
2017-Apr-15 18:30N 34°37' E 033°15'713.8
2017-Apr-15 18:00N 34°32' E 033°10'612.6
2017-Apr-15 17:30N 34°29' E 033°03'714.2
2017-Apr-15 17:00N 34°31' E 032°54'714.0
2017-Apr-15 16:31N 34°32' E 032°46'  
Track history (hours):
 
Tides and Currents Weather Stations Pressure Air Temp Water Temp Dewpoint Dewpoint Depression Visibility Wind Speed Wind Dir Waves Ship Positions

Mariner A

Last reported at 2017-Apr-22 16:53 UTC. Time now 2017-Apr-23 17:54 UTC.
Position N 31°39' E 034°31'.

Length 176 m; draft 9.5 m.

Type: Ship (hazmat cat A). MMSI: 215817000.

Date/timePositionNaut miles runAvg speedWind from/ knotsBaromVisibWave heightAir tempDewpointWater temp
2017-Apr-22 16:53N 31°39' E 034°31'1 0.1
2017-Apr-22 09:09N 31°40' E 034°30'1 0.1
2017-Apr-21 16:56N 31°41' E 034°29'0 0.0
2017-Apr-21 16:26N 31°41' E 034°29'0 0.0
2017-Apr-21 15:56N 31°41' E 034°29'0 0.0
2017-Apr-21 15:26N 31°41' E 034°29'0 0.0
2017-Apr-21 14:56N 31°41' E 034°29'0 0.0
2017-Apr-21 14:26N 31°41' E 034°29'0 0.0
2017-Apr-21 13:26N 31°41' E 034°29'6 0.9
2017-Apr-21 06:46N 31°46' E 034°28'512.0
2017-Apr-21 06:22N 31°51' E 034°27'411.8
2017-Apr-21 06:00N 31°54' E 034°23'612.3
2017-Apr-21 05:30N 31°57' E 034°17'612.1
2017-Apr-21 05:00N 31°60' E 034°10'612.2
2017-Apr-21 04:30N 32°03' E 034°04'612.2
2017-Apr-21 04:00N 32°05' E 033°57'612.0
2017-Apr-21 03:30N 32°07' E 033°51'611.7
2017-Apr-21 03:00N 32°13' E 033°49'612.0
2017-Apr-21 02:30N 32°19' E 033°48'712.1
2017-Apr-21 01:55N 32°26' E 033°47'511.8
2017-Apr-21 01:30N 32°31' E 033°45'712.2
2017-Apr-21 00:57N 32°37' E 033°44'612.6
2017-Apr-21 00:30N 32°43' E 033°43'612.7
2017-Apr-21 00:00N 32°49' E 033°42'612.5
2017-Apr-20 23:30N 32°55' E 033°40'612.5
2017-Apr-20 23:00N 33°01' E 033°37'612.4
2017-Apr-20 22:30N 33°07' E 033°36'713.2
2017-Apr-20 22:00N 33°14' E 033°37'712.9
2017-Apr-20 21:30N 33°20' E 033°36'613.0
2017-Apr-20 21:00N 33°26' E 033°34'713.1
2017-Apr-20 20:30N 33°33' E 033°33'713.2
2017-Apr-20 20:00N 33°39' E 033°32'713.1
2017-Apr-20 19:30N 33°46' E 033°31'713.2
2017-Apr-20 19:00N 33°52' E 033°30'713.4
2017-Apr-20 18:30N 33°59' E 033°28'713.4
2017-Apr-20 18:00N 34°06' E 033°27'713.4
2017-Apr-20 17:30N 34°12' E 033°26'713.4
2017-Apr-20 17:00N 34°19' E 033°25'713.2
2017-Apr-20 16:30N 34°25' E 033°23'713.1
2017-Apr-20 16:00N 34°32' E 033°22'612.7
2017-Apr-20 15:30N 34°38' E 033°20'4 8.2
2017-Apr-20 14:58N 34°42' E 033°19'0 0.5
2017-Apr-20 14:25N 34°42' E 033°19'1 0.0
2017-Apr-18 17:52N 34°42' E 033°20'0 0.0
2017-Apr-17 19:09N 34°42' E 033°20'0 0.1
2017-Apr-17 18:57N 34°42' E 033°20'0 0.0
2017-Apr-17 15:39N 34°42' E 033°20'0 0.0
2017-Apr-17 15:15N 34°42' E 033°20'0 0.0
2017-Apr-17 14:57N 34°42' E 033°20'0 0.0
2017-Apr-17 12:57N 34°42' E 033°20'0 0.0
2017-Apr-16 22:09N 34°42' E 033°20'0 0.0
2017-Apr-16 21:45N 34°42' E 033°20'0 0.0
2017-Apr-16 20:51N 34°42' E 033°20'0 0.0
2017-Apr-16 20:27N 34°42' E 033°20'0 0.0
2017-Apr-16 19:15N 34°42' E 033°20'0 0.0
2017-Apr-16 17:56N 34°42' E 033°20'0 0.0
2017-Apr-16 16:44N 34°42' E 033°20'0 0.0
2017-Apr-16 16:26N 34°42' E 033°20'0 0.0
2017-Apr-16 01:50N 34°42' E 033°20'0 0.0
2017-Apr-15 20:26N 34°42' E 033°20'0 0.0
2017-Apr-15 19:52N 34°42' E 033°20'0 0.0
2017-Apr-15 19:28N 34°42' E 033°20'0 0.9
2017-Apr-15 19:00N 34°41' E 033°20'611.8
2017-Apr-15 18:30N 34°37' E 033°15'713.8
2017-Apr-15 18:00N 34°32' E 033°10'612.6
2017-Apr-15 17:30N 34°29' E 033°03'714.2
2017-Apr-15 17:00N 34°31' E 032°54'714.0
2017-Apr-15 16:31N 34°32' E 032°46'  

Dump ship's entire track history